sensor_id;sensor_type;location;lat;lon;timestamp;temperature;humidity
42339;DHT22;27993;45.392;10.918;2022-10-16T00:02:20;16.50;99.90
42339;DHT22;27993;45.392;10.918;2022-10-16T00:04:51;16.40;99.90
42339;DHT22;27993;45.392;10.918;2022-10-16T00:07:21;16.40;99.90
42339;DHT22;27993;45.392;10.918;2022-10-16T00:09:52;16.30;99.90
42339;DHT22;27993;45.392;10.918;2022-10-16T00:12:23;16.40;99.90
42339;DHT22;27993;45.392;10.918;2022-10-16T00:14:53;16.20;99.90
42339;DHT22;27993;45.392;10.918;2022-10-16T00:17:24;16.30;99.90
42339;DHT22;27993;45.392;10.918;2022-10-16T00:19:55;16.30;99.90
42339;DHT22;27993;45.392;10.918;2022-10-16T00:22:26;16.30;99.90
42339;DHT22;27993;45.392;10.918;2022-10-16T00:24:56;16.30;99.90
42339;DHT22;27993;45.392;10.918;2022-10-16T00:27:27;16.40;99.90
42339;DHT22;27993;45.392;10.918;2022-10-16T00:29:58;16.20;99.90
42339;DHT22;27993;45.392;10.918;2022-10-16T00:32:28;16.20;99.90
42339;DHT22;27993;45.392;10.918;2022-10-16T00:34:59;16.20;99.90
42339;DHT22;27993;45.392;10.918;2022-10-16T00:37:29;16.00;99.90
42339;DHT22;27993;45.392;10.918;2022-10-16T00:40:00;16.10;99.90
42339;DHT22;27993;45.392;10.918;2022-10-16T00:42:31;16.10;99.90
42339;DHT22;27993;45.392;10.918;2022-10-16T00:45:02;16.10;99.90
42339;DHT22;27993;45.392;10.918;2022-10-16T00:47:43;16.10;99.90
42339;DHT22;27993;45.392;10.918;2022-10-16T00:50:33;16.20;99.90
42339;DHT22;27993;45.392;10.918;2022-10-16T00:53:04;16.20;99.90
42339;DHT22;27993;45.392;10.918;2022-10-16T00:55:35;16.20;99.90
42339;DHT22;27993;45.392;10.918;2022-10-16T00:58:06;16.30;99.90
42339;DHT22;27993;45.392;10.918;2022-10-16T01:00:37;16.20;99.90
42339;DHT22;27993;45.392;10.918;2022-10-16T01:03:31;16.10;99.90
42339;DHT22;27993;45.392;10.918;2022-10-16T01:06:22;16.10;99.90
42339;DHT22;27993;45.392;10.918;2022-10-16T01:09:14;16.10;99.90
42339;DHT22;27993;45.392;10.918;2022-10-16T01:12:05;16.10;99.90
42339;DHT22;27993;45.392;10.918;2022-10-16T01:14:54;16.10;99.90
42339;DHT22;27993;45.392;10.918;2022-10-16T01:17:41;16.10;99.90
42339;DHT22;27993;45.392;10.918;2022-10-16T01:20:33;16.00;99.90
42339;DHT22;27993;45.392;10.918;2022-10-16T01:29:16;16.00;99.90
42339;DHT22;27993;45.392;10.918;2022-10-16T01:31:41;15.90;99.90
42339;DHT22;27993;45.392;10.918;2022-10-16T01:34:17;15.90;99.90
42339;DHT22;27993;45.392;10.918;2022-10-16T01:36:56;15.80;99.90
42339;DHT22;27993;45.392;10.918;2022-10-16T01:39:31;15.70;99.90
42339;DHT22;27993;45.392;10.918;2022-10-16T01:42:11;15.70;99.90
42339;DHT22;27993;45.392;10.918;2022-10-16T01:44:44;15.80;99.90
42339;DHT22;27993;45.392;10.918;2022-10-16T01:47:17;15.80;99.90
42339;DHT22;27993;45.392;10.918;2022-10-16T01:49:49;15.80;99.90
42339;DHT22;27993;45.392;10.918;2022-10-16T01:52:23;15.80;99.90
42339;DHT22;27993;45.392;10.918;2022-10-16T01:54:57;15.80;99.90
42339;DHT22;27993;45.392;10.918;2022-10-16T01:57:29;15.90;99.90
42339;DHT22;27993;45.392;10.918;2022-10-16T02:00:05;15.90;99.90
42339;DHT22;27993;45.392;10.918;2022-10-16T02:02:38;15.90;99.90
42339;DHT22;27993;45.392;10.918;2022-10-16T02:07:49;16.10;99.90
42339;DHT22;27993;45.392;10.918;2022-10-16T02:10:20;16.10;99.90
42339;DHT22;27993;45.392;10.918;2022-10-16T02:12:58;16.10;99.90
42339;DHT22;27993;45.392;10.918;2022-10-16T02:15:29;16.20;99.90
42339;DHT22;27993;45.392;10.918;2022-10-16T02:18:02;16.20;99.90
42339;DHT22;27993;45.392;10.918;2022-10-16T02:20:55;16.20;99.90
42339;DHT22;27993;45.392;10.918;2022-10-16T02:23:57;16.30;99.90
42339;DHT22;27993;45.392;10.918;2022-10-16T02:26:31;16.30;99.90
42339;DHT22;27993;45.392;10.918;2022-10-16T02:29:10;16.30;99.90
42339;DHT22;27993;45.392;10.918;2022-10-16T02:31:46;16.30;99.90
42339;DHT22;27993;45.392;10.918;2022-10-16T02:34:19;16.30;99.90
42339;DHT22;27993;45.392;10.918;2022-10-16T02:36:55;16.40;99.90
42339;DHT22;27993;45.392;10.918;2022-10-16T02:39:28;16.30;99.90
42339;DHT22;27993;45.392;10.918;2022-10-16T02:41:59;16.40;99.90
42339;DHT22;27993;45.392;10.918;2022-10-16T02:44:30;16.30;99.90
42339;DHT22;27993;45.392;10.918;2022-10-16T02:47:01;16.40;99.90
42339;DHT22;27993;45.392;10.918;2022-10-16T02:49:31;16.40;99.90
42339;DHT22;27993;45.392;10.918;2022-10-16T02:52:02;16.40;99.90
42339;DHT22;27993;45.392;10.918;2022-10-16T02:54:33;16.50;99.90
42339;DHT22;27993;45.392;10.918;2022-10-16T02:57:03;16.50;99.90
42339;DHT22;27993;45.392;10.918;2022-10-16T02:59:34;16.50;99.90
42339;DHT22;27993;45.392;10.918;2022-10-16T03:02:04;16.50;99.90
42339;DHT22;27993;45.392;10.918;2022-10-16T03:04:35;16.50;99.90
42339;DHT22;27993;45.392;10.918;2022-10-16T03:07:06;16.60;99.90
42339;DHT22;27993;45.392;10.918;2022-10-16T03:09:37;16.50;99.90
42339;DHT22;27993;45.392;10.918;2022-10-16T03:12:08;16.50;99.90
42339;DHT22;27993;45.392;10.918;2022-10-16T03:14:38;16.40;99.90
42339;DHT22;27993;45.392;10.918;2022-10-16T03:17:10;16.40;99.90
42339;DHT22;27993;45.392;10.918;2022-10-16T03:19:40;16.40;99.90
42339;DHT22;27993;45.392;10.918;2022-10-16T03:22:11;16.30;99.90
42339;DHT22;27993;45.392;10.918;2022-10-16T03:24:42;16.40;99.90
42339;DHT22;27993;45.392;10.918;2022-10-16T03:27:12;16.40;99.90
42339;DHT22;27993;45.392;10.918;2022-10-16T03:29:43;16.40;99.90
42339;DHT22;27993;45.392;10.918;2022-10-16T03:32:13;16.40;99.90
42339;DHT22;27993;45.392;10.918;2022-10-16T03:34:44;16.50;99.90
42339;DHT22;27993;45.392;10.918;2022-10-16T03:37:15;16.40;99.90
42339;DHT22;27993;45.392;10.918;2022-10-16T03:39:48;16.20;99.90
42339;DHT22;27993;45.392;10.918;2022-10-16T03:42:19;16.10;99.90
42339;DHT22;27993;45.392;10.918;2022-10-16T03:44:49;16.00;99.90
42339;DHT22;27993;45.392;10.918;2022-10-16T03:47:20;16.10;99.90
42339;DHT22;27993;45.392;10.918;2022-10-16T03:49:53;16.10;99.90
42339;DHT22;27993;45.392;10.918;2022-10-16T03:52:24;16.10;99.90
42339;DHT22;27993;45.392;10.918;2022-10-16T03:54:54;16.00;99.90
42339;DHT22;27993;45.392;10.918;2022-10-16T03:57:28;16.10;99.90
42339;DHT22;27993;45.392;10.918;2022-10-16T03:59:59;16.10;99.90
42339;DHT22;27993;45.392;10.918;2022-10-16T04:02:29;16.10;99.90
42339;DHT22;27993;45.392;10.918;2022-10-16T04:05:00;16.10;99.90
42339;DHT22;27993;45.392;10.918;2022-10-16T04:07:30;16.20;99.90
42339;DHT22;27993;45.392;10.918;2022-10-16T04:10:01;16.20;99.90
42339;DHT22;27993;45.392;10.918;2022-10-16T04:12:32;16.20;99.90
42339;DHT22;27993;45.392;10.918;2022-10-16T04:15:03;16.20;99.90
42339;DHT22;27993;45.392;10.918;2022-10-16T04:17:33;16.30;99.90
42339;DHT22;27993;45.392;10.918;2022-10-16T04:20:04;16.30;99.90
42339;DHT22;27993;45.392;10.918;2022-10-16T04:22:35;16.30;99.90
42339;DHT22;27993;45.392;10.918;2022-10-16T04:25:06;16.30;99.90
42339;DHT22;27993;45.392;10.918;2022-10-16T04:27:38;16.30;99.90
42339;DHT22;27993;45.392;10.918;2022-10-16T04:30:09;16.30;99.90
42339;DHT22;27993;45.392;10.918;2022-10-16T04:32:40;16.30;99.90
42339;DHT22;27993;45.392;10.918;2022-10-16T04:35:10;16.30;99.90
42339;DHT22;27993;45.392;10.918;2022-10-16T04:37:41;16.40;99.90
42339;DHT22;27993;45.392;10.918;2022-10-16T04:40:12;16.40;99.90
42339;DHT22;27993;45.392;10.918;2022-10-16T04:42:43;16.40;99.90
42339;DHT22;27993;45.392;10.918;2022-10-16T04:45:14;16.40;99.90
42339;DHT22;27993;45.392;10.918;2022-10-16T04:47:44;16.40;99.90
42339;DHT22;27993;45.392;10.918;2022-10-16T04:50:15;16.40;99.90
42339;DHT22;27993;45.392;10.918;2022-10-16T04:52:46;16.50;99.90
42339;DHT22;27993;45.392;10.918;2022-10-16T04:55:16;16.50;99.90
42339;DHT22;27993;45.392;10.918;2022-10-16T04:57:47;16.40;99.90
42339;DHT22;27993;45.392;10.918;2022-10-16T05:00:18;16.50;99.90
42339;DHT22;27993;45.392;10.918;2022-10-16T05:02:50;16.60;99.90
42339;DHT22;27993;45.392;10.918;2022-10-16T05:05:21;16.60;99.90
42339;DHT22;27993;45.392;10.918;2022-10-16T05:07:52;16.60;99.90
42339;DHT22;27993;45.392;10.918;2022-10-16T05:10:23;16.60;99.90
42339;DHT22;27993;45.392;10.918;2022-10-16T05:12:53;16.60;99.90
42339;DHT22;27993;45.392;10.918;2022-10-16T05:15:24;16.50;99.90
42339;DHT22;27993;45.392;10.918;2022-10-16T05:17:55;16.60;99.90
42339;DHT22;27993;45.392;10.918;2022-10-16T05:20:26;16.60;99.90
42339;DHT22;27993;45.392;10.918;2022-10-16T05:22:57;16.60;99.90
42339;DHT22;27993;45.392;10.918;2022-10-16T05:25:27;16.60;99.90
42339;DHT22;27993;45.392;10.918;2022-10-16T05:27:58;16.60;99.90
42339;DHT22;27993;45.392;10.918;2022-10-16T05:30:29;16.70;99.90
42339;DHT22;27993;45.392;10.918;2022-10-16T05:32:59;16.70;99.90
42339;DHT22;27993;45.392;10.918;2022-10-16T05:35:30;16.70;99.90
42339;DHT22;27993;45.392;10.918;2022-10-16T05:38:00;16.70;99.90
42339;DHT22;27993;45.392;10.918;2022-10-16T05:40:31;16.70;99.90
42339;DHT22;27993;45.392;10.918;2022-10-16T05:43:02;16.80;99.90
42339;DHT22;27993;45.392;10.918;2022-10-16T05:45:33;16.70;99.90
42339;DHT22;27993;45.392;10.918;2022-10-16T05:48:03;16.70;99.90
42339;DHT22;27993;45.392;10.918;2022-10-16T05:50:34;16.70;99.90
42339;DHT22;27993;45.392;10.918;2022-10-16T05:53:05;16.70;99.90
42339;DHT22;27993;45.392;10.918;2022-10-16T05:55:35;16.70;99.90
42339;DHT22;27993;45.392;10.918;2022-10-16T05:58:06;16.80;99.90
42339;DHT22;27993;45.392;10.918;2022-10-16T06:00:36;16.80;99.90
42339;DHT22;27993;45.392;10.918;2022-10-16T06:03:07;16.80;99.90
42339;DHT22;27993;45.392;10.918;2022-10-16T06:05:38;16.80;99.90
42339;DHT22;27993;45.392;10.918;2022-10-16T06:08:08;16.90;99.90
42339;DHT22;27993;45.392;10.918;2022-10-16T06:10:39;16.90;99.90
42339;DHT22;27993;45.392;10.918;2022-10-16T06:13:13;16.80;99.90
42339;DHT22;27993;45.392;10.918;2022-10-16T06:15:51;16.80;99.90
42339;DHT22;27993;45.392;10.918;2022-10-16T06:18:22;16.80;99.90
42339;DHT22;27993;45.392;10.918;2022-10-16T06:20:53;16.80;99.90
42339;DHT22;27993;45.392;10.918;2022-10-16T06:23:24;16.90;99.90
42339;DHT22;27993;45.392;10.918;2022-10-16T06:26:11;16.90;99.90
42339;DHT22;27993;45.392;10.918;2022-10-16T06:28:43;17.00;99.90
42339;DHT22;27993;45.392;10.918;2022-10-16T06:31:14;16.90;99.90
42339;DHT22;27993;45.392;10.918;2022-10-16T06:33:45;17.00;99.90
42339;DHT22;27993;45.392;10.918;2022-10-16T06:36:18;17.00;99.90
42339;DHT22;27993;45.392;10.918;2022-10-16T06:38:49;17.00;99.90
42339;DHT22;27993;45.392;10.918;2022-10-16T06:41:21;17.00;99.90
42339;DHT22;27993;45.392;10.918;2022-10-16T06:43:52;17.00;99.90
42339;DHT22;27993;45.392;10.918;2022-10-16T06:46:25;17.00;99.90
42339;DHT22;27993;45.392;10.918;2022-10-16T06:48:55;17.10;99.90
42339;DHT22;27993;45.392;10.918;2022-10-16T06:51:26;17.10;99.90
42339;DHT22;27993;45.392;10.918;2022-10-16T06:53:57;17.20;99.90
42339;DHT22;27993;45.392;10.918;2022-10-16T06:56:28;17.20;99.90
42339;DHT22;27993;45.392;10.918;2022-10-16T06:59:01;17.30;99.90
42339;DHT22;27993;45.392;10.918;2022-10-16T07:01:32;17.30;99.90
42339;DHT22;27993;45.392;10.918;2022-10-16T07:04:03;17.20;99.90
42339;DHT22;27993;45.392;10.918;2022-10-16T07:06:34;17.30;99.90
42339;DHT22;27993;45.392;10.918;2022-10-16T07:09:08;17.30;99.90
42339;DHT22;27993;45.392;10.918;2022-10-16T07:11:40;17.30;99.90
42339;DHT22;27993;45.392;10.918;2022-10-16T07:14:18;17.20;99.90
42339;DHT22;27993;45.392;10.918;2022-10-16T07:16:49;17.30;99.90
42339;DHT22;27993;45.392;10.918;2022-10-16T07:19:20;17.50;99.90
42339;DHT22;27993;45.392;10.918;2022-10-16T07:21:51;17.50;99.90
42339;DHT22;27993;45.392;10.918;2022-10-16T07:24:24;17.50;99.90
42339;DHT22;27993;45.392;10.918;2022-10-16T07:26:55;17.50;99.90
42339;DHT22;27993;45.392;10.918;2022-10-16T07:29:25;17.50;99.90
42339;DHT22;27993;45.392;10.918;2022-10-16T07:31:56;17.50;99.90
42339;DHT22;27993;45.392;10.918;2022-10-16T07:34:27;17.50;99.90
42339;DHT22;27993;45.392;10.918;2022-10-16T07:36:58;17.60;99.90
42339;DHT22;27993;45.392;10.918;2022-10-16T07:39:28;17.70;99.90
42339;DHT22;27993;45.392;10.918;2022-10-16T07:41:59;17.70;99.90
42339;DHT22;27993;45.392;10.918;2022-10-16T07:44:29;17.70;99.90
42339;DHT22;27993;45.392;10.918;2022-10-16T07:47:00;17.80;99.90
42339;DHT22;27993;45.392;10.918;2022-10-16T07:49:31;17.80;99.90
42339;DHT22;27993;45.392;10.918;2022-10-16T07:52:01;17.90;99.90
42339;DHT22;27993;45.392;10.918;2022-10-16T07:54:32;17.90;99.90
42339;DHT22;27993;45.392;10.918;2022-10-16T07:57:03;18.00;99.90
42339;DHT22;27993;45.392;10.918;2022-10-16T07:59:33;18.10;99.90
42339;DHT22;27993;45.392;10.918;2022-10-16T08:02:04;18.10;99.90
42339;DHT22;27993;45.392;10.918;2022-10-16T08:04:35;18.20;99.90
42339;DHT22;27993;45.392;10.918;2022-10-16T08:07:07;18.20;99.90
42339;DHT22;27993;45.392;10.918;2022-10-16T08:09:38;18.20;99.90
42339;DHT22;27993;45.392;10.918;2022-10-16T08:12:08;18.20;99.90
42339;DHT22;27993;45.392;10.918;2022-10-16T08:14:41;18.20;99.90
42339;DHT22;27993;45.392;10.918;2022-10-16T08:17:13;18.10;99.90
42339;DHT22;27993;45.392;10.918;2022-10-16T08:19:47;18.20;99.90
42339;DHT22;27993;45.392;10.918;2022-10-16T08:22:18;18.30;99.90
42339;DHT22;27993;45.392;10.918;2022-10-16T08:24:48;19.20;99.90
42339;DHT22;27993;45.392;10.918;2022-10-16T08:27:19;20.10;99.90
42339;DHT22;27993;45.392;10.918;2022-10-16T08:29:50;21.00;99.90
42339;DHT22;27993;45.392;10.918;2022-10-16T08:32:20;21.40;99.90
42339;DHT22;27993;45.392;10.918;2022-10-16T08:34:51;21.80;99.90
42339;DHT22;27993;45.392;10.918;2022-10-16T08:37:21;22.30;99.90
42339;DHT22;27993;45.392;10.918;2022-10-16T08:39:52;22.70;99.90
42339;DHT22;27993;45.392;10.918;2022-10-16T08:50:38;24.40;99.90
42339;DHT22;27993;45.392;10.918;2022-10-16T08:53:16;24.40;99.90
42339;DHT22;27993;45.392;10.918;2022-10-16T08:55:52;24.50;99.90
42339;DHT22;27993;45.392;10.918;2022-10-16T08:58:27;24.30;99.90
42339;DHT22;27993;45.392;10.918;2022-10-16T09:01:01;24.60;99.90
42339;DHT22;27993;45.392;10.918;2022-10-16T09:06:32;25.00;99.90
42339;DHT22;27993;45.392;10.918;2022-10-16T09:23:22;26.90;99.90
42339;DHT22;27993;45.392;10.918;2022-10-16T09:25:55;27.10;99.90
42339;DHT22;27993;45.392;10.918;2022-10-16T09:28:27;27.20;99.90
42339;DHT22;27993;45.392;10.918;2022-10-16T09:30:58;27.70;99.90
42339;DHT22;27993;45.392;10.918;2022-10-16T09:33:36;27.60;99.90
42339;DHT22;27993;45.392;10.918;2022-10-16T09:36:10;27.80;99.90
42339;DHT22;27993;45.392;10.918;2022-10-16T09:38:44;27.70;99.90
42339;DHT22;27993;45.392;10.918;2022-10-16T09:41:20;27.30;99.90
42339;DHT22;27993;45.392;10.918;2022-10-16T09:43:57;27.20;99.90
42339;DHT22;27993;45.392;10.918;2022-10-16T09:46:31;27.40;99.90
42339;DHT22;27993;45.392;10.918;2022-10-16T09:49:23;27.00;99.90
42339;DHT22;27993;45.392;10.918;2022-10-16T09:52:12;26.60;99.90
42339;DHT22;27993;45.392;10.918;2022-10-16T09:54:50;27.50;99.90
42339;DHT22;27993;45.392;10.918;2022-10-16T09:57:22;27.20;99.90
42339;DHT22;27993;45.392;10.918;2022-10-16T09:59:55;26.80;99.90
42339;DHT22;27993;45.392;10.918;2022-10-16T10:02:37;26.90;99.90
42339;DHT22;27993;45.392;10.918;2022-10-16T10:05:23;27.80;99.90
42339;DHT22;27993;45.392;10.918;2022-10-16T10:07:58;28.30;99.90
42339;DHT22;27993;45.392;10.918;2022-10-16T10:10:32;28.10;99.90
42339;DHT22;27993;45.392;10.918;2022-10-16T10:13:03;27.90;99.90
42339;DHT22;27993;45.392;10.918;2022-10-16T10:15:41;27.40;99.90
42339;DHT22;27993;45.392;10.918;2022-10-16T10:18:18;27.40;99.90
42339;DHT22;27993;45.392;10.918;2022-10-16T10:21:00;27.50;99.90
42339;DHT22;27993;45.392;10.918;2022-10-16T10:23:31;27.30;99.90
42339;DHT22;27993;45.392;10.918;2022-10-16T10:26:07;27.20;99.90
42339;DHT22;27993;45.392;10.918;2022-10-16T10:45:58;27.60;99.90
42339;DHT22;27993;45.392;10.918;2022-10-16T10:48:26;27.00;99.90
42339;DHT22;27993;45.392;10.918;2022-10-16T10:51:13;26.40;99.90
42339;DHT22;27993;45.392;10.918;2022-10-16T10:56:50;25.40;99.90
42339;DHT22;27993;45.392;10.918;2022-10-16T11:04:48;25.80;99.90
42339;DHT22;27993;45.392;10.918;2022-10-16T11:07:34;25.70;99.90
42339;DHT22;27993;45.392;10.918;2022-10-16T11:10:19;24.90;99.90
42339;DHT22;27993;45.392;10.918;2022-10-16T11:12:57;24.90;99.90
42339;DHT22;27993;45.392;10.918;2022-10-16T11:15:39;24.80;99.90
42339;DHT22;27993;45.392;10.918;2022-10-16T11:21:13;24.00;99.90
42339;DHT22;27993;45.392;10.918;2022-10-16T11:24:05;24.20;99.90
42339;DHT22;27993;45.392;10.918;2022-10-16T11:26:41;24.40;99.90
42339;DHT22;27993;45.392;10.918;2022-10-16T11:29:20;24.40;99.90
42339;DHT22;27993;45.392;10.918;2022-10-16T11:31:57;24.40;99.90
42339;DHT22;27993;45.392;10.918;2022-10-16T11:34:42;24.30;99.90
42339;DHT22;27993;45.392;10.918;2022-10-16T11:37:26;24.50;99.90
42339;DHT22;27993;45.392;10.918;2022-10-16T11:40:03;23.90;99.90
42339;DHT22;27993;45.392;10.918;2022-10-16T11:42:40;24.00;99.90
42339;DHT22;27993;45.392;10.918;2022-10-16T11:48:27;23.80;99.90
42339;DHT22;27993;45.392;10.918;2022-10-16T11:54:22;24.50;99.90
42339;DHT22;27993;45.392;10.918;2022-10-16T11:56:59;24.90;99.90
42339;DHT22;27993;45.392;10.918;2022-10-16T12:02:40;24.80;99.90
42339;DHT22;27993;45.392;10.918;2022-10-16T12:08:14;25.00;99.90
42339;DHT22;27993;45.392;10.918;2022-10-16T12:10:47;24.90;99.90
42339;DHT22;27993;45.392;10.918;2022-10-16T12:13:32;24.70;99.90
42339;DHT22;27993;45.392;10.918;2022-10-16T12:18:44;24.50;99.90
42339;DHT22;27993;45.392;10.918;2022-10-16T12:21:19;24.70;99.90
42339;DHT22;27993;45.392;10.918;2022-10-16T12:24:02;24.70;99.90
42339;DHT22;27993;45.392;10.918;2022-10-16T12:26:38;24.90;99.90
42339;DHT22;27993;45.392;10.918;2022-10-16T12:29:35;24.70;99.90
42339;DHT22;27993;45.392;10.918;2022-10-16T12:34:53;24.30;99.90
42339;DHT22;27993;45.392;10.918;2022-10-16T12:37:35;24.00;99.90
42339;DHT22;27993;45.392;10.918;2022-10-16T12:40:28;23.80;99.90
42339;DHT22;27993;45.392;10.918;2022-10-16T12:43:12;23.90;99.90
42339;DHT22;27993;45.392;10.918;2022-10-16T12:45:43;23.90;99.90
42339;DHT22;27993;45.392;10.918;2022-10-16T12:48:22;23.90;99.90
42339;DHT22;27993;45.392;10.918;2022-10-16T12:50:53;24.30;99.90
42339;DHT22;27993;45.392;10.918;2022-10-16T12:53:25;24.30;99.90
42339;DHT22;27993;45.392;10.918;2022-10-16T13:01:22;23.70;99.90
42339;DHT22;27993;45.392;10.918;2022-10-16T13:10:00;23.60;99.90
42339;DHT22;27993;45.392;10.918;2022-10-16T13:18:38;23.70;99.90
42339;DHT22;27993;45.392;10.918;2022-10-16T13:21:41;24.00;99.90
42339;DHT22;27993;45.392;10.918;2022-10-16T13:30:01;23.70;99.90
42339;DHT22;27993;45.392;10.918;2022-10-16T13:32:40;23.80;99.90
42339;DHT22;27993;45.392;10.918;2022-10-16T13:35:27;23.90;99.90
42339;DHT22;27993;45.392;10.918;2022-10-16T13:38:11;24.00;99.90
42339;DHT22;27993;45.392;10.918;2022-10-16T13:41:01;24.00;99.90
42339;DHT22;27993;45.392;10.918;2022-10-16T13:43:35;24.00;99.90
42339;DHT22;27993;45.392;10.918;2022-10-16T13:46:13;23.90;99.90
42339;DHT22;27993;45.392;10.918;2022-10-16T13:48:55;23.80;99.90
42339;DHT22;27993;45.392;10.918;2022-10-16T13:51:26;23.70;99.90
42339;DHT22;27993;45.392;10.918;2022-10-16T13:53:58;23.60;99.90
42339;DHT22;27993;45.392;10.918;2022-10-16T13:56:30;23.60;99.90
42339;DHT22;27993;45.392;10.918;2022-10-16T13:59:06;23.60;99.90
42339;DHT22;27993;45.392;10.918;2022-10-16T14:01:42;23.60;99.90
42339;DHT22;27993;45.392;10.918;2022-10-16T14:04:14;23.70;99.90
42339;DHT22;27993;45.392;10.918;2022-10-16T14:06:46;23.70;99.90
42339;DHT22;27993;45.392;10.918;2022-10-16T14:09:28;23.70;99.90
42339;DHT22;27993;45.392;10.918;2022-10-16T14:12:02;23.70;99.90
42339;DHT22;27993;45.392;10.918;2022-10-16T14:14:45;23.70;99.90
42339;DHT22;27993;45.392;10.918;2022-10-16T14:17:29;23.70;99.90
42339;DHT22;27993;45.392;10.918;2022-10-16T14:20:03;23.60;99.90
42339;DHT22;27993;45.392;10.918;2022-10-16T14:22:41;23.60;99.90
42339;DHT22;27993;45.392;10.918;2022-10-16T14:28:13;23.40;99.90
42339;DHT22;27993;45.392;10.918;2022-10-16T14:30:57;23.20;99.90
42339;DHT22;27993;45.392;10.918;2022-10-16T14:33:32;23.10;99.90
42339;DHT22;27993;45.392;10.918;2022-10-16T14:36:06;23.00;99.90
42339;DHT22;27993;45.392;10.918;2022-10-16T14:38:48;23.00;99.90
42339;DHT22;27993;45.392;10.918;2022-10-16T14:41:21;23.10;99.90
42339;DHT22;27993;45.392;10.918;2022-10-16T14:43:56;23.10;99.90
42339;DHT22;27993;45.392;10.918;2022-10-16T14:46:34;23.10;99.90
42339;DHT22;27993;45.392;10.918;2022-10-16T14:49:25;23.20;99.90
42339;DHT22;27993;45.392;10.918;2022-10-16T14:51:57;23.30;99.90
42339;DHT22;27993;45.392;10.918;2022-10-16T14:54:28;23.20;99.90
42339;DHT22;27993;45.392;10.918;2022-10-16T14:56:58;23.20;99.90
42339;DHT22;27993;45.392;10.918;2022-10-16T14:59:37;23.20;99.90
42339;DHT22;27993;45.392;10.918;2022-10-16T15:04:48;23.30;99.90
42339;DHT22;27993;45.392;10.918;2022-10-16T15:07:19;23.20;99.90
42339;DHT22;27993;45.392;10.918;2022-10-16T15:09:50;23.10;99.90
42339;DHT22;27993;45.392;10.918;2022-10-16T15:12:20;23.10;99.90
42339;DHT22;27993;45.392;10.918;2022-10-16T15:14:51;23.10;99.90
42339;DHT22;27993;45.392;10.918;2022-10-16T15:17:21;23.00;99.90
42339;DHT22;27993;45.392;10.918;2022-10-16T15:19:52;22.90;99.90
42339;DHT22;27993;45.392;10.918;2022-10-16T15:22:22;22.80;99.90
42339;DHT22;27993;45.392;10.918;2022-10-16T15:24:53;22.80;99.90
42339;DHT22;27993;45.392;10.918;2022-10-16T15:27:24;22.80;99.90
42339;DHT22;27993;45.392;10.918;2022-10-16T15:29:54;22.60;99.90
42339;DHT22;27993;45.392;10.918;2022-10-16T15:32:25;22.50;99.90
42339;DHT22;27993;45.392;10.918;2022-10-16T15:34:55;22.50;99.90
42339;DHT22;27993;45.392;10.918;2022-10-16T15:37:26;22.40;99.90
42339;DHT22;27993;45.392;10.918;2022-10-16T15:39:56;22.40;99.90
42339;DHT22;27993;45.392;10.918;2022-10-16T15:42:27;22.30;99.90
42339;DHT22;27993;45.392;10.918;2022-10-16T15:44:58;22.20;99.90
42339;DHT22;27993;45.392;10.918;2022-10-16T15:47:28;22.20;99.90
42339;DHT22;27993;45.392;10.918;2022-10-16T15:49:59;22.10;99.90
42339;DHT22;27993;45.392;10.918;2022-10-16T15:52:29;21.90;99.90
42339;DHT22;27993;45.392;10.918;2022-10-16T15:55:02;21.80;99.90
42339;DHT22;27993;45.392;10.918;2022-10-16T15:57:32;21.80;99.90
42339;DHT22;27993;45.392;10.918;2022-10-16T16:00:07;21.70;99.90
42339;DHT22;27993;45.392;10.918;2022-10-16T16:02:39;21.80;99.90
42339;DHT22;27993;45.392;10.918;2022-10-16T16:05:11;21.80;99.90
42339;DHT22;27993;45.392;10.918;2022-10-16T16:07:41;21.80;99.90
42339;DHT22;27993;45.392;10.918;2022-10-16T16:10:12;21.80;99.90
42339;DHT22;27993;45.392;10.918;2022-10-16T16:12:43;21.80;99.90
42339;DHT22;27993;45.392;10.918;2022-10-16T16:15:13;21.80;99.90
42339;DHT22;27993;45.392;10.918;2022-10-16T16:17:44;21.80;99.90
42339;DHT22;27993;45.392;10.918;2022-10-16T16:20:15;21.70;99.90
42339;DHT22;27993;45.392;10.918;2022-10-16T16:22:46;21.50;99.90
42339;DHT22;27993;45.392;10.918;2022-10-16T16:25:19;21.40;99.90
42339;DHT22;27993;45.392;10.918;2022-10-16T16:27:50;21.40;99.90
42339;DHT22;27993;45.392;10.918;2022-10-16T16:30:21;21.40;99.90
42339;DHT22;27993;45.392;10.918;2022-10-16T16:32:51;21.30;99.90
42339;DHT22;27993;45.392;10.918;2022-10-16T16:35:22;21.30;99.90
42339;DHT22;27993;45.392;10.918;2022-10-16T16:37:53;21.20;99.90
42339;DHT22;27993;45.392;10.918;2022-10-16T16:40:23;21.10;99.90
42339;DHT22;27993;45.392;10.918;2022-10-16T16:42:54;21.00;99.90
42339;DHT22;27993;45.392;10.918;2022-10-16T16:45:24;20.90;99.90
42339;DHT22;27993;45.392;10.918;2022-10-16T16:47:56;21.00;99.90
42339;DHT22;27993;45.392;10.918;2022-10-16T16:50:26;20.90;99.90
42339;DHT22;27993;45.392;10.918;2022-10-16T16:52:57;20.80;99.90
42339;DHT22;27993;45.392;10.918;2022-10-16T16:55:27;20.80;99.90
42339;DHT22;27993;45.392;10.918;2022-10-16T16:57:58;20.70;99.90
42339;DHT22;27993;45.392;10.918;2022-10-16T17:00:29;20.70;99.90
42339;DHT22;27993;45.392;10.918;2022-10-16T17:03:01;20.60;99.90
42339;DHT22;27993;45.392;10.918;2022-10-16T17:05:33;20.60;99.90
42339;DHT22;27993;45.392;10.918;2022-10-16T17:08:08;20.60;99.90
42339;DHT22;27993;45.392;10.918;2022-10-16T17:10:43;20.50;99.90
42339;DHT22;27993;45.392;10.918;2022-10-16T17:13:13;20.40;99.90
42339;DHT22;27993;45.392;10.918;2022-10-16T17:15:49;20.30;99.90
42339;DHT22;27993;45.392;10.918;2022-10-16T17:18:21;20.20;99.90
42339;DHT22;27993;45.392;10.918;2022-10-16T17:20:59;20.20;99.90
42339;DHT22;27993;45.392;10.918;2022-10-16T17:23:31;20.20;99.90
42339;DHT22;27993;45.392;10.918;2022-10-16T17:26:03;20.20;99.90
42339;DHT22;27993;45.392;10.918;2022-10-16T17:28:35;20.20;99.90
42339;DHT22;27993;45.392;10.918;2022-10-16T17:31:14;20.10;99.90
42339;DHT22;27993;45.392;10.918;2022-10-16T17:33:45;20.20;99.90
42339;DHT22;27993;45.392;10.918;2022-10-16T17:36:17;20.10;99.90
42339;DHT22;27993;45.392;10.918;2022-10-16T17:38:48;20.00;99.90
42339;DHT22;27993;45.392;10.918;2022-10-16T17:41:22;20.00;99.90
42339;DHT22;27993;45.392;10.918;2022-10-16T17:43:53;19.80;99.90
42339;DHT22;27993;45.392;10.918;2022-10-16T17:46:24;19.80;99.90